createdAt,value
2022-11-04T03:59:07.266Z,56.48
2022-11-04T04:00:07.816Z,56.48
2022-11-04T04:01:07.284Z,56.38
2022-11-04T04:02:07.907Z,56.58
2022-11-04T04:03:07.168Z,56.20
2022-11-04T04:04:07.830Z,56.58
2022-11-04T04:05:07.210Z,56.58
2022-11-04T04:06:07.852Z,56.77
2022-11-04T04:07:07.823Z,56.87
2022-11-04T04:08:07.617Z,56.58
2022-11-04T04:09:07.832Z,56.87
2022-11-04T04:10:07.792Z,56.77
2022-11-04T04:11:07.795Z,56.77
2022-11-04T04:12:07.797Z,56.96
2022-11-04T04:13:07.798Z,57.06
2022-11-04T04:14:07.874Z,57.25
2022-11-04T04:15:07.844Z,57.15
2022-11-04T04:16:07.823Z,57.25
2022-11-04T04:18:08.245Z,57.28
2022-11-04T04:19:07.103Z,57.28
2022-11-04T04:20:07.317Z,57.67
2022-11-04T04:21:06.123Z,57.64
2022-11-04T04:22:07.361Z,57.57
2022-11-04T04:23:06.075Z,57.28
2022-11-04T04:24:06.068Z,57.47
2022-11-04T04:25:08.348Z,57.67
2022-11-04T04:26:07.069Z,57.57
2022-11-04T04:27:07.218Z,57.57
2022-11-04T04:28:08.260Z,57.67
2022-11-04T04:29:07.823Z,57.67
2022-11-04T04:30:08.011Z,57.47
2022-11-04T04:31:07.851Z,57.57
2022-11-04T04:32:07.074Z,57.67
2022-11-04T04:33:07.821Z,57.57
2022-11-04T04:34:08.836Z,57.67
2022-11-04T04:35:07.877Z,57.67
2022-11-04T04:36:07.850Z,57.28
2022-11-04T04:37:07.832Z,57.57
2022-11-04T04:38:07.416Z,57.28
2022-11-04T04:39:07.862Z,57.47
2022-11-04T04:40:07.001Z,57.37
2022-11-04T04:41:08.861Z,57.37
2022-11-04T04:42:05.991Z,57.37
2022-11-04T04:43:08.238Z,57.37
2022-11-04T04:44:07.017Z,57.09
2022-11-04T04:45:06.982Z,56.99
2022-11-04T04:46:07.830Z,57.09
2022-11-04T04:47:07.037Z,57.28
2022-11-04T04:48:07.366Z,57.18
2022-11-04T04:49:07.024Z,57.18
2022-11-04T04:50:07.080Z,57.09
2022-11-04T04:51:05.999Z,57.09
2022-11-04T04:52:07.396Z,57.28
2022-11-04T04:53:06.428Z,56.90
2022-11-04T04:54:06.165Z,56.92
2022-11-04T04:55:05.981Z,56.99
2022-11-04T04:56:05.984Z,57.09
2022-11-04T04:57:06.988Z,57.09
2022-11-04T04:58:07.415Z,57.02
2022-11-04T04:59:06.969Z,56.99
2022-11-04T05:00:07.960Z,57.12
2022-11-04T05:01:08.978Z,56.82
2022-11-04T05:02:07.130Z,56.82
2022-11-04T05:03:07.540Z,56.73
2022-11-04T05:04:07.367Z,56.92
2022-11-04T05:05:08.418Z,56.92
2022-11-04T05:06:06.909Z,56.82
2022-11-04T05:07:06.946Z,56.63
2022-11-04T05:08:07.725Z,56.73
2022-11-04T05:09:07.365Z,56.54
2022-11-04T05:10:08.240Z,56.92
2022-11-04T05:11:06.967Z,56.63
2022-11-04T05:12:07.846Z,56.54
2022-11-04T05:13:07.269Z,56.92
2022-11-04T05:14:07.887Z,56.92
2022-11-04T05:15:08.101Z,57.02
2022-11-04T05:16:07.907Z,56.82
2022-11-04T05:17:06.926Z,56.82
2022-11-04T05:18:07.202Z,56.92
2022-11-04T05:19:06.918Z,56.92
2022-11-04T05:20:06.903Z,56.82
2022-11-04T05:21:07.868Z,56.63
2022-11-04T05:22:06.875Z,56.82
2022-11-04T05:23:06.854Z,56.63
2022-11-04T05:24:06.910Z,56.73
2022-11-04T05:25:07.937Z,56.63
2022-11-04T05:26:06.854Z,56.63
2022-11-04T05:27:08.363Z,56.63
2022-11-04T05:28:07.158Z,56.73
2022-11-04T05:29:07.446Z,56.63
2022-11-04T05:30:07.517Z,56.73
2022-11-04T05:31:07.415Z,56.82
2022-11-04T05:32:07.392Z,56.73
2022-11-04T05:33:07.277Z,56.82
2022-11-04T05:34:06.998Z,56.54
2022-11-04T05:35:07.509Z,56.54
2022-11-04T05:36:05.827Z,56.44
2022-11-04T05:37:07.447Z,56.44
2022-11-04T05:38:06.805Z,56.73
2022-11-04T05:39:07.410Z,56.54
2022-11-04T05:40:07.509Z,56.35
2022-11-04T05:41:07.393Z,56.63
2022-11-04T05:42:07.389Z,56.54
2022-11-04T05:43:07.767Z,56.44
2022-11-04T05:44:07.369Z,56.63
2022-11-04T05:45:07.411Z,56.44
2022-11-04T05:46:07.549Z,56.54
2022-11-04T05:47:07.405Z,56.63
2022-11-04T05:48:06.754Z,56.44
2022-11-04T05:49:07.418Z,56.25
2022-11-04T05:50:07.629Z,56.44
2022-11-04T05:51:07.420Z,56.54
2022-11-04T05:52:07.397Z,56.35
2022-11-04T05:53:07.025Z,56.44
2022-11-04T05:54:12.423Z,56.25
2022-11-04T05:55:06.902Z,56.44
2022-11-04T05:56:07.502Z,56.35
2022-11-04T05:57:07.384Z,56.44
2022-11-04T05:58:07.769Z,56.35
2022-11-04T05:59:05.858Z,56.54
2022-11-04T06:00:08.485Z,56.25
2022-11-04T06:01:06.758Z,56.54
2022-11-04T06:02:07.776Z,56.54
2022-11-04T06:03:10.665Z,56.15
2022-11-04T06:04:07.405Z,56.54
2022-11-04T06:05:07.388Z,56.15
2022-11-04T06:06:07.400Z,56.35
2022-11-04T06:07:07.448Z,56.35
2022-11-04T06:08:07.760Z,56.54
2022-11-04T06:09:05.732Z,56.05
2022-11-04T06:10:07.416Z,56.54
2022-11-04T06:11:07.492Z,56.25
2022-11-04T06:12:07.436Z,56.35
2022-11-04T06:13:05.668Z,56.25
2022-11-04T06:14:07.433Z,55.96
2022-11-04T06:15:07.436Z,56.44
2022-11-04T06:16:05.703Z,56.25
2022-11-04T06:17:05.735Z,56.15
2022-11-04T06:18:05.835Z,56.44
2022-11-04T06:19:08.663Z,56.44
2022-11-04T06:20:05.688Z,56.63
2022-11-04T06:21:06.430Z,56.63
2022-11-04T06:22:05.739Z,56.54
2022-11-04T06:23:06.999Z,56.35
2022-11-04T06:24:05.633Z,56.63
2022-11-04T06:25:05.829Z,56.73
2022-11-04T06:26:05.683Z,56.63
2022-11-04T06:27:06.922Z,56.63
2022-11-04T06:28:08.372Z,56.63
2022-11-04T06:29:07.164Z,56.25
2022-11-04T06:30:13.461Z,56.25
2022-11-04T06:31:10.979Z,56.82
2022-11-04T06:32:06.657Z,56.54
2022-11-04T06:33:05.670Z,56.73
2022-11-04T06:34:06.943Z,56.82
2022-11-04T06:35:06.661Z,56.82
2022-11-04T06:36:06.663Z,56.44
2022-11-04T06:37:06.599Z,56.44
2022-11-04T06:38:06.985Z,56.82
2022-11-04T06:39:07.458Z,56.92
2022-11-04T06:40:08.491Z,56.63
2022-11-04T06:41:06.882Z,56.35
2022-11-04T06:42:09.466Z,56.44
2022-11-04T06:43:05.895Z,56.82
2022-11-04T06:44:07.580Z,56.63
2022-11-04T06:45:07.555Z,56.54
2022-11-04T06:46:06.664Z,56.44
2022-11-04T06:47:07.076Z,56.54
2022-11-04T06:48:06.625Z,56.92
2022-11-04T06:49:06.980Z,56.54
2022-11-04T06:50:06.978Z,56.63
2022-11-04T06:51:06.657Z,56.25
2022-11-04T06:52:05.559Z,56.35
2022-11-04T06:53:05.694Z,56.63
2022-11-04T06:54:07.191Z,56.63
2022-11-04T06:55:07.797Z,56.54
2022-11-04T06:56:05.525Z,56.15
2022-11-04T06:57:07.949Z,56.54
2022-11-04T06:58:05.553Z,55.96
2022-11-04T06:59:06.945Z,56.05
2022-11-04T07:00:06.642Z,56.63
2022-11-04T07:01:12.624Z,56.54
2022-11-04T07:02:05.643Z,56.25
2022-11-04T07:03:11.127Z,56.54
2022-11-04T07:04:05.556Z,56.25
2022-11-04T07:05:07.692Z,56.44
2022-11-04T07:06:07.448Z,56.54
2022-11-04T07:07:07.540Z,55.77
2022-11-04T07:09:08.482Z,55.96
2022-11-04T07:10:05.635Z,56.05
2022-11-04T07:11:12.482Z,56.35
2022-11-04T07:12:05.502Z,56.35
2022-11-04T07:13:05.544Z,56.15
2022-11-04T07:14:06.510Z,55.96
2022-11-04T07:15:05.612Z,56.15
2022-11-04T07:16:06.976Z,55.87
2022-11-04T07:17:14.904Z,55.87
2022-11-04T07:19:54.174Z,56.05
2022-11-04T07:21:10.128Z,56.05
2022-11-04T07:21:59.856Z,56.05
2022-11-04T07:22:52.773Z,55.87
2022-11-04T07:23:52.788Z,55.96
2022-11-04T07:24:52.952Z,55.77
2022-11-04T07:25:54.726Z,56.35
2022-11-04T07:26:54.158Z,56.37
2022-11-04T07:27:55.473Z,55.70
2022-11-04T07:28:54.711Z,55.57
2022-11-04T07:29:54.687Z,55.67
2022-11-04T07:30:52.741Z,56.57
2022-11-04T07:31:52.898Z,55.60
2022-11-04T07:33:54.686Z,55.89
2022-11-04T07:34:53.178Z,55.79
2022-11-04T07:35:56.995Z,55.79
2022-11-04T07:36:54.466Z,56.05
2022-11-04T07:37:52.788Z,55.99
2022-11-04T07:38:54.700Z,55.89
2022-11-04T07:39:54.694Z,55.77
2022-11-04T07:40:52.859Z,56.57
2022-11-04T07:41:59.313Z,56.47
2022-11-04T07:42:57.045Z,55.99
2022-11-04T07:43:52.783Z,56.27
2022-11-04T07:44:54.124Z,55.99
2022-11-04T07:45:52.697Z,55.89
2022-11-04T07:46:53.859Z,56.09
2022-11-04T07:47:53.730Z,56.27
2022-11-04T07:48:56.416Z,55.99
2022-11-04T07:49:55.462Z,55.89
2022-11-04T07:50:55.141Z,56.18
2022-11-04T07:51:54.579Z,56.09
2022-11-04T07:52:56.001Z,55.99
2022-11-04T07:53:53.475Z,56.18
2022-11-04T07:54:59.143Z,55.79
2022-11-04T07:55:55.238Z,55.70
2022-11-04T07:56:55.374Z,55.51
2022-11-04T07:57:54.199Z,55.51
2022-11-04T07:58:55.010Z,55.70
2022-11-04T07:59:54.214Z,55.70
2022-11-04T08:00:55.325Z,55.70
2022-11-04T08:01:52.924Z,55.79
2022-11-04T08:02:54.393Z,55.51
2022-11-04T08:03:52.620Z,56.01
2022-11-04T08:04:54.251Z,55.54
2022-11-04T08:05:58.549Z,55.63
2022-11-04T08:06:54.290Z,55.44
2022-11-04T08:07:54.305Z,55.44
2022-11-04T08:09:52.654Z,55.63
2022-11-04T08:10:53.300Z,55.54
2022-11-04T08:11:52.600Z,55.34
2022-11-04T08:12:54.215Z,55.54
2022-11-04T08:13:52.618Z,55.82
2022-11-04T08:14:53.969Z,55.54
2022-11-04T08:15:52.624Z,55.63
2022-11-04T08:16:52.900Z,55.63
2022-11-04T08:17:52.595Z,55.44
2022-11-04T08:18:56.165Z,55.63
2022-11-04T08:19:52.574Z,55.82
2022-11-04T08:20:53.795Z,55.63
2022-11-04T08:21:52.569Z,55.63
2022-11-04T08:22:52.610Z,55.82
2022-11-04T08:23:55.089Z,55.34
2022-11-04T08:24:52.560Z,55.63
2022-11-04T08:25:54.333Z,55.63
2022-11-04T08:26:53.269Z,55.54
2022-11-04T08:27:55.579Z,56.01
2022-11-04T08:28:52.575Z,55.56
2022-11-04T08:30:17.914Z,55.56
2022-11-04T08:30:56.183Z,55.66
2022-11-04T08:32:27.137Z,55.56
2022-11-04T08:32:52.853Z,55.36
2022-11-04T08:33:55.671Z,55.66
2022-11-04T08:34:53.297Z,55.27
2022-11-04T08:35:59.394Z,55.76
2022-11-04T08:36:52.825Z,55.76
2022-11-04T08:37:52.563Z,56.14
2022-11-04T08:38:57.287Z,54.79
2022-11-04T08:39:54.383Z,55.85
2022-11-04T08:40:59.463Z,55.76
2022-11-04T08:41:53.422Z,55.66
2022-11-04T08:42:52.702Z,55.66
2022-11-04T08:43:54.589Z,55.56
2022-11-04T08:44:52.754Z,55.56
2022-11-04T08:45:52.679Z,55.46
2022-11-04T08:46:52.602Z,54.98
2022-11-04T08:47:59.042Z,55.01
2022-11-04T08:48:54.735Z,55.27
2022-11-04T08:50:01.287Z,55.46
2022-11-04T08:50:52.642Z,55.40
2022-11-04T08:51:52.534Z,55.20
2022-11-04T08:52:52.605Z,55.10
2022-11-04T08:53:52.723Z,55.59
2022-11-04T08:54:57.278Z,55.30
2022-11-04T08:55:55.408Z,55.20
2022-11-04T08:56:52.610Z,55.78
2022-11-04T08:57:52.498Z,55.20
2022-11-04T08:58:56.450Z,55.20
2022-11-04T08:59:55.137Z,55.10
2022-11-04T09:00:59.348Z,55.01
2022-11-04T09:01:54.170Z,55.01
2022-11-04T09:02:52.478Z,55.88
2022-11-04T09:03:52.857Z,55.10
2022-11-04T09:04:53.988Z,55.10
2022-11-04T09:05:52.691Z,54.82
2022-11-04T09:07:05.192Z,55.10
2022-11-04T09:07:52.895Z,55.10
2022-11-04T09:08:52.461Z,55.40
2022-11-04T09:09:53.382Z,55.49
2022-11-04T09:10:55.294Z,55.52
2022-11-04T09:11:55.331Z,54.94
2022-11-04T09:12:54.427Z,55.42
2022-11-04T09:13:54.260Z,54.94
2022-11-04T09:14:54.258Z,55.52
2022-11-04T09:15:54.700Z,54.94
2022-11-04T09:16:54.541Z,55.04
2022-11-04T09:17:52.533Z,55.04
2022-11-04T09:18:54.280Z,55.52
2022-11-04T09:19:54.325Z,54.65
2022-11-04T09:21:55.121Z,54.75
2022-11-04T09:22:52.496Z,55.23
2022-11-04T09:23:54.347Z,54.65
2022-11-04T09:24:54.334Z,54.65
2022-11-04T09:26:54.276Z,54.84
2022-11-04T09:27:54.269Z,55.23
2022-11-04T09:28:54.359Z,55.35
2022-11-04T09:29:54.315Z,55.33
2022-11-04T09:30:53.943Z,54.77
2022-11-04T09:31:56.403Z,54.77
2022-11-04T09:32:53.007Z,55.26
2022-11-04T09:34:54.379Z,55.26
2022-11-04T09:35:54.337Z,55.26
2022-11-04T09:36:52.404Z,54.68
2022-11-04T09:37:52.396Z,55.35
2022-11-04T09:38:52.409Z,54.68
2022-11-04T09:39:54.145Z,55.16
2022-11-04T09:40:53.866Z,55.16
2022-11-04T09:41:52.467Z,55.16
2022-11-04T09:42:52.393Z,54.58
2022-11-04T09:43:52.402Z,54.77
2022-11-04T09:45:19.946Z,55.26
2022-11-04T09:45:52.388Z,55.16
2022-11-04T09:47:52.454Z,55.16
2022-11-04T09:48:53.673Z,55.29
2022-11-04T09:49:54.367Z,54.99
2022-11-04T09:50:52.563Z,54.51
2022-11-04T09:51:55.819Z,54.90
2022-11-04T09:52:52.419Z,54.51
2022-11-04T09:53:52.398Z,54.61
2022-11-04T09:54:54.316Z,54.80
2022-11-04T09:55:52.627Z,54.99
2022-11-04T09:56:54.404Z,54.80
2022-11-04T09:58:53.292Z,54.41
2022-11-04T09:59:54.296Z,54.41
2022-11-04T10:00:54.360Z,54.61
2022-11-04T10:02:00.416Z,54.13
2022-11-04T10:13:20.976Z,54.25
2022-11-04T10:14:20.758Z,54.05
2022-11-04T10:15:20.777Z,53.96
2022-11-04T10:16:20.389Z,54.35
2022-11-04T10:17:20.374Z,53.96
2022-11-04T10:18:21.252Z,54.35
2022-11-04T10:19:20.770Z,53.96
2022-11-04T10:20:19.235Z,53.96
2022-11-04T10:21:20.782Z,53.96
2022-11-04T10:22:20.785Z,53.96
2022-11-04T10:23:23.209Z,54.44
2022-11-04T10:24:23.902Z,54.53
2022-11-04T10:25:19.265Z,54.25
2022-11-04T10:26:20.283Z,54.44
2022-11-04T10:27:20.026Z,54.05
2022-11-04T10:28:24.060Z,54.44
2022-11-04T10:29:19.461Z,54.05
2022-11-04T10:30:23.104Z,53.96
2022-11-04T10:31:20.191Z,54.47
2022-11-04T10:32:22.263Z,53.96
2022-11-04T10:33:20.956Z,54.37
2022-11-04T10:34:19.532Z,53.99
2022-11-04T10:35:19.164Z,54.17
2022-11-04T10:36:26.485Z,53.99
2022-11-04T10:37:25.175Z,54.37
2022-11-04T10:38:19.157Z,54.37
2022-11-04T10:39:25.834Z,54.47
2022-11-04T10:40:19.388Z,54.37
2022-11-04T10:41:22.002Z,54.47
2022-11-04T10:42:19.150Z,53.79
2022-11-04T10:43:19.456Z,53.99
2022-11-04T10:44:19.287Z,53.99
2022-11-04T10:45:19.814Z,54.21
2022-11-04T10:46:27.940Z,53.89
2022-11-04T10:47:19.233Z,54.11
2022-11-04T10:48:19.206Z,54.11
2022-11-04T10:49:19.246Z,54.11
2022-11-04T10:50:34.646Z,54.11
2022-11-04T10:51:20.858Z,53.72
2022-11-04T10:52:22.993Z,54.01
2022-11-04T10:53:19.248Z,54.30
2022-11-04T10:54:20.883Z,54.01
2022-11-04T10:55:31.527Z,53.63
2022-11-04T10:56:19.278Z,53.63
2022-11-04T10:57:21.518Z,53.63
2022-11-04T10:58:19.249Z,54.11
2022-11-04T10:59:20.639Z,53.81
2022-11-04T11:00:19.235Z,53.55
2022-11-04T11:01:19.389Z,53.75
2022-11-04T11:02:20.945Z,53.75
2022-11-04T11:03:19.138Z,53.85
2022-11-04T11:04:19.200Z,53.85
2022-11-04T11:05:19.253Z,53.85
2022-11-04T11:06:20.835Z,53.45
2022-11-04T11:07:20.811Z,53.45
2022-11-04T11:08:20.333Z,53.45
2022-11-04T11:09:19.211Z,53.07
2022-11-04T11:10:25.645Z,53.65
2022-11-04T11:11:20.229Z,53.14
2022-11-04T11:12:49.507Z,53.17
2022-11-04T11:13:19.163Z,53.63
2022-11-04T11:14:20.820Z,53.75
2022-11-04T11:15:22.956Z,53.36
2022-11-04T11:16:22.024Z,53.45
2022-11-04T11:17:19.172Z,53.26
2022-11-04T11:18:19.139Z,53.55
2022-11-04T11:19:19.287Z,53.36
2022-11-04T11:20:20.817Z,53.26
2022-11-04T11:21:23.441Z,53.36
2022-11-04T11:22:20.839Z,53.45
2022-11-04T11:23:20.490Z,53.45
2022-11-04T11:24:19.448Z,53.55
2022-11-04T11:25:19.155Z,52.97
2022-11-04T11:26:20.837Z,53.07
2022-11-04T11:27:19.254Z,53.17
2022-11-04T11:28:19.756Z,53.07
2022-11-04T11:29:19.131Z,53.26
2022-11-04T11:30:20.822Z,53.07
2022-11-04T11:31:20.916Z,53.07
2022-11-04T11:32:21.085Z,52.97
2022-11-04T11:33:20.838Z,53.26
2022-11-04T11:34:20.871Z,53.09
2022-11-04T11:35:20.868Z,52.90
2022-11-04T11:36:19.349Z,53.09
2022-11-04T11:37:20.841Z,53.00
2022-11-04T11:38:20.833Z,53.09
2022-11-04T11:39:20.872Z,53.09
2022-11-04T11:40:20.827Z,53.19
2022-11-04T11:41:25.544Z,53.09
2022-11-04T11:42:20.861Z,53.09
2022-11-04T11:43:20.839Z,53.29
2022-11-04T11:44:21.839Z,52.71
2022-11-04T11:45:20.840Z,52.90
2022-11-04T11:46:21.861Z,52.90
2022-11-04T11:47:20.852Z,52.90
2022-11-04T11:48:22.838Z,52.54
2022-11-04T11:49:19.143Z,52.54
2022-11-04T11:50:19.172Z,53.02
2022-11-04T11:51:21.977Z,52.83
2022-11-04T11:52:20.846Z,52.25
2022-11-04T11:53:19.189Z,52.37
2022-11-04T11:54:19.248Z,52.37
2022-11-04T11:55:20.907Z,52.08
2022-11-04T11:56:20.868Z,52.66
2022-11-04T11:57:25.041Z,52.40
2022-11-04T12:01:24.258Z,51.75
2022-11-04T12:02:21.984Z,52.06
2022-11-04T12:03:25.300Z,51.35
2022-11-04T12:06:20.536Z,51.97
2022-11-04T12:09:23.386Z,51.50
2022-11-04T12:10:44.684Z,51.70
2022-11-04T12:11:19.161Z,51.38
2022-11-04T12:12:20.893Z,51.77
2022-11-04T12:13:24.668Z,51.67
2022-11-04T12:14:21.118Z,51.57
2022-11-04T12:15:23.049Z,51.67
2022-11-04T12:16:22.049Z,50.82
2022-11-04T12:17:33.332Z,51.70
2022-11-04T12:18:26.566Z,50.75
2022-11-04T12:19:19.478Z,50.85
2022-11-04T12:20:19.406Z,50.36
2022-11-04T12:21:25.284Z,50.97
2022-11-04T12:22:19.190Z,50.41
2022-11-04T12:23:19.470Z,50.12
2022-11-04T12:24:19.331Z,50.02
2022-11-04T12:25:20.887Z,49.95
2022-11-04T12:26:26.887Z,49.95
2022-11-04T12:27:20.885Z,49.68
2022-11-04T12:28:19.209Z,49.78
2022-11-04T12:29:19.306Z,49.78
2022-11-04T12:30:22.540Z,49.71
2022-11-04T12:31:19.285Z,49.61
2022-11-04T12:32:20.898Z,49.41
2022-11-04T12:33:21.175Z,49.41
2022-11-04T12:34:19.329Z,49.15
2022-11-04T12:35:19.499Z,49.15
2022-11-04T12:36:19.292Z,49.05
2022-11-04T12:37:20.230Z,48.97
2022-11-04T12:38:19.220Z,48.88
2022-11-04T12:39:20.968Z,49.00
2022-11-04T12:40:19.340Z,48.61
2022-11-04T12:42:23.056Z,48.41
2022-11-04T12:43:20.935Z,48.32
2022-11-04T12:44:19.318Z,48.34
2022-11-04T12:45:20.902Z,48.14
2022-11-04T12:46:19.254Z,48.24
2022-11-04T12:47:21.052Z,48.07
2022-11-04T12:48:19.307Z,47.97
2022-11-04T12:49:21.193Z,47.77
2022-11-04T12:50:19.303Z,47.67
2022-11-04T12:51:20.909Z,47.80
2022-11-04T12:52:20.939Z,47.31
2022-11-04T12:53:19.306Z,47.21
2022-11-04T12:54:20.385Z,47.31
2022-11-04T12:55:19.291Z,47.41
2022-11-04T12:56:21.139Z,47.28
2022-11-04T12:57:21.426Z,47.58
2022-11-04T12:58:20.371Z,48.14
2022-11-04T12:59:20.935Z,48.12
2022-11-04T13:00:19.323Z,48.32
2022-11-04T13:01:21.117Z,48.39
2022-11-04T13:02:22.203Z,48.39
2022-11-04T13:03:19.661Z,48.66
2022-11-04T13:04:19.395Z,48.66
2022-11-04T13:05:21.029Z,48.83
2022-11-04T13:06:21.951Z,48.73
2022-11-04T13:07:20.851Z,48.71
2022-11-04T13:08:22.378Z,48.71
2022-11-04T13:09:20.927Z,48.88
2022-11-04T13:10:20.381Z,48.97
2022-11-04T13:11:20.999Z,48.68
2022-11-04T13:12:21.058Z,48.68
2022-11-04T13:13:21.924Z,48.32
2022-11-04T13:14:20.942Z,48.22
2022-11-04T13:15:20.961Z,48.02
2022-11-04T13:16:21.094Z,48.22
2022-11-04T13:17:20.969Z,48.29
2022-11-04T13:18:21.016Z,48.66
2022-11-04T13:19:19.373Z,48.66
2022-11-04T13:20:21.062Z,48.85
2022-11-04T13:21:21.992Z,48.83
2022-11-04T13:22:20.935Z,48.93
2022-11-04T13:23:21.187Z,49.10
2022-11-04T13:24:21.093Z,49.10
2022-11-04T13:25:20.990Z,49.10
2022-11-04T13:26:21.029Z,49.27
2022-11-04T13:27:21.028Z,49.27
2022-11-04T13:28:20.942Z,49.63
2022-11-04T13:29:20.967Z,49.44
2022-11-04T13:30:20.942Z,49.44
2022-11-04T13:31:20.948Z,49.51
2022-11-04T13:32:21.177Z,49.90
2022-11-04T13:33:20.973Z,49.51
2022-11-04T13:34:23.335Z,50.07
2022-11-04T13:35:20.952Z,49.49
2022-11-04T13:36:20.968Z,49.77
2022-11-04T13:37:19.407Z,50.07
2022-11-04T13:38:19.427Z,49.66
2022-11-04T13:39:21.025Z,49.85
2022-11-04T13:40:19.396Z,49.82
2022-11-04T13:41:21.864Z,50.12
2022-11-04T13:42:21.120Z,50.31
2022-11-04T13:43:27.126Z,50.31
2022-11-04T13:44:21.029Z,50.41
2022-11-04T13:45:21.000Z,50.29
2022-11-04T13:46:20.958Z,50.09
2022-11-04T13:47:22.405Z,50.48
2022-11-04T13:48:26.961Z,49.99
2022-11-04T13:49:21.013Z,50.55
2022-11-04T13:50:20.986Z,50.55
2022-11-04T13:51:22.004Z,50.55
2022-11-04T13:52:19.394Z,50.26
2022-11-04T13:53:21.251Z,50.33
2022-11-04T13:54:21.052Z,50.55
2022-11-04T13:55:19.506Z,50.52
2022-11-04T13:56:32.789Z,50.43
2022-11-04T13:57:26.970Z,50.52
2022-11-04T13:58:19.438Z,50.82
2022-11-04T13:59:21.091Z,50.98
2022-11-04T14:00:20.993Z,51.08
2022-11-04T14:01:21.079Z,50.79
2022-11-04T14:02:26.097Z,51.47
2022-11-04T14:03:21.069Z,51.37
2022-11-04T14:04:19.385Z,51.37
2022-11-04T14:05:19.412Z,51.18
2022-11-04T14:06:19.422Z,50.86
2022-11-04T14:07:21.011Z,50.76
2022-11-04T14:08:19.437Z,51.06
2022-11-04T14:09:20.998Z,51.15
2022-11-04T14:10:19.378Z,51.35
2022-11-04T14:11:19.506Z,51.54
2022-11-04T14:12:19.412Z,51.42
2022-11-04T14:13:21.368Z,51.54
2022-11-04T14:15:22.998Z,51.32
2022-11-04T14:16:19.371Z,51.32
2022-11-04T14:17:21.006Z,51.42
2022-11-04T14:18:19.388Z,51.42
2022-11-04T14:19:21.000Z,51.61
2022-11-04T14:20:21.043Z,51.51
2022-11-04T14:21:19.379Z,51.42
2022-11-04T14:22:19.362Z,51.42
2022-11-04T14:23:21.011Z,51.42
2022-11-04T14:24:21.007Z,51.61
2022-11-04T14:25:21.050Z,51.49
2022-11-04T14:26:21.071Z,51.71
2022-11-04T14:27:20.501Z,51.20
2022-11-04T14:28:21.143Z,51.29
2022-11-04T14:29:21.020Z,51.20
2022-11-04T14:30:19.351Z,51.20
2022-11-04T14:31:21.016Z,51.68
2022-11-04T14:32:21.017Z,51.20
2022-11-04T14:33:22.026Z,51.87
2022-11-04T14:34:21.026Z,51.97
2022-11-04T14:35:21.024Z,51.78
2022-11-04T14:36:21.016Z,51.87
2022-11-04T14:37:19.336Z,51.87
2022-11-04T14:38:21.015Z,51.87
2022-11-04T14:39:19.350Z,52.07
2022-11-04T14:40:21.058Z,52.04
2022-11-04T14:41:21.052Z,52.14
2022-11-04T14:42:21.052Z,52.14
2022-11-04T14:43:21.059Z,52.43
2022-11-04T14:44:20.415Z,52.53
2022-11-04T14:45:21.012Z,52.53
2022-11-04T14:46:21.111Z,51.75
2022-11-04T14:47:21.020Z,52.33
2022-11-04T14:48:21.081Z,51.85
2022-11-04T14:49:21.083Z,52.23
2022-11-04T14:50:21.021Z,52.04
2022-11-04T14:51:21.091Z,52.04
2022-11-04T14:52:21.019Z,52.33
2022-11-04T14:53:21.125Z,52.23
2022-11-04T14:54:21.055Z,52.14
2022-11-04T14:55:21.172Z,52.21
2022-11-04T14:56:23.776Z,52.11
2022-11-04T14:57:19.349Z,52.31
2022-11-04T14:58:19.315Z,52.40
2022-11-04T14:59:19.308Z,52.21
2022-11-04T15:00:19.314Z,52.11
2022-11-04T15:01:21.198Z,52.50
2022-11-04T15:02:19.485Z,52.11
2022-11-04T15:04:19.332Z,52.69
2022-11-04T15:05:21.108Z,52.21
2022-11-04T15:06:19.274Z,52.69
2022-11-04T15:07:19.269Z,52.31
2022-11-04T15:08:19.299Z,52.69
2022-11-04T15:09:19.437Z,52.50
2022-11-04T15:10:21.077Z,52.59
2022-11-04T15:11:20.063Z,52.50
2022-11-04T15:12:21.218Z,52.50
2022-11-04T15:13:21.186Z,52.69
2022-11-04T15:14:21.101Z,52.59
2022-11-04T15:15:21.188Z,52.79
2022-11-04T15:16:20.566Z,52.59
2022-11-04T15:17:20.252Z,52.69
2022-11-04T15:18:27.113Z,52.31
2022-11-04T15:19:21.095Z,52.59
2022-11-04T15:20:20.550Z,52.40
2022-11-04T15:21:21.074Z,52.21
2022-11-04T15:22:21.070Z,52.47
2022-11-04T15:23:21.055Z,52.21
2022-11-04T15:24:21.306Z,52.67
2022-11-04T15:25:21.110Z,52.95
2022-11-04T15:26:25.083Z,52.76
2022-11-04T15:27:21.283Z,52.86
2022-11-04T15:28:20.215Z,52.95
2022-11-04T15:29:21.136Z,52.57
2022-11-04T15:30:21.056Z,52.86
2022-11-04T15:31:21.081Z,52.86
2022-11-04T15:32:21.051Z,52.47
2022-11-04T15:33:20.213Z,52.76
2022-11-04T15:34:20.568Z,52.76
2022-11-04T15:35:21.189Z,52.86
2022-11-04T15:36:20.572Z,52.95
2022-11-04T15:37:21.057Z,52.86
2022-11-04T15:38:20.447Z,52.76
2022-11-04T15:39:20.189Z,53.05
2022-11-04T15:40:21.064Z,52.57
2022-11-04T15:41:20.601Z,52.76
2022-11-04T15:42:20.581Z,52.95
2022-11-04T15:43:20.200Z,52.76
2022-11-04T15:44:20.196Z,53.25
2022-11-04T15:45:19.184Z,53.05
2022-11-04T15:46:21.164Z,53.05
2022-11-04T15:47:21.608Z,53.15
2022-11-04T15:48:20.175Z,53.13
2022-11-04T15:49:20.170Z,53.15
2022-11-04T15:50:20.191Z,52.95
2022-11-04T15:51:21.086Z,53.31
2022-11-04T15:52:20.152Z,53.22
2022-11-04T15:53:21.160Z,53.31
2022-11-04T15:54:21.236Z,53.13
2022-11-04T15:55:19.164Z,53.03
2022-11-04T15:56:21.079Z,53.22
2022-11-04T15:57:21.228Z,53.22
2022-11-04T15:58:21.088Z,53.03
2022-11-04T15:59:20.156Z,53.13
2022-11-04T16:00:20.196Z,53.03
2022-11-04T16:01:20.317Z,52.93
2022-11-04T16:12:29.365Z,52.83
2022-11-04T16:13:29.830Z,52.45
2022-11-04T16:14:29.898Z,52.64
2022-11-04T16:15:29.338Z,53.22
2022-11-04T16:16:29.831Z,52.64
2022-11-04T16:17:29.837Z,52.93
2022-11-04T16:18:29.874Z,53.31
2022-11-04T16:19:29.287Z,52.83
2022-11-04T16:20:29.846Z,53.22
2022-11-04T16:21:29.280Z,53.41
2022-11-04T16:22:29.851Z,53.03
2022-11-04T16:23:29.912Z,53.31
2022-11-04T16:24:29.473Z,53.22
2022-11-04T16:25:29.251Z,53.09
2022-11-04T16:26:29.429Z,53.19
2022-11-04T16:27:28.263Z,53.09
2022-11-04T16:28:28.265Z,53.39
2022-11-04T16:29:28.292Z,53.51
2022-11-04T16:30:28.325Z,53.29
2022-11-04T16:31:29.370Z,53.58
2022-11-04T16:32:29.354Z,53.39
2022-11-04T16:33:30.856Z,53.29
2022-11-04T16:34:28.226Z,53.39
2022-11-04T16:35:28.222Z,53.29
2022-11-04T16:36:33.999Z,53.87
2022-11-04T16:37:29.528Z,53.77
2022-11-04T16:38:29.222Z,53.96
2022-11-04T16:39:29.210Z,53.48
2022-11-04T16:40:28.233Z,53.87
2022-11-04T16:41:29.855Z,53.48
2022-11-04T16:42:29.402Z,53.87
2022-11-04T16:43:29.222Z,53.96
2022-11-04T16:44:29.279Z,53.96
2022-11-04T16:45:29.191Z,53.39
2022-11-04T16:46:29.189Z,53.29
2022-11-04T16:47:29.867Z,53.39
2022-11-04T16:48:29.187Z,53.39
2022-11-04T16:49:29.893Z,53.58
2022-11-04T16:50:29.375Z,53.58
2022-11-04T16:51:29.854Z,53.48
2022-11-04T16:52:29.187Z,53.48
2022-11-04T16:53:29.155Z,54.06
2022-11-04T16:54:29.860Z,54.16
2022-11-04T16:55:30.034Z,53.19
2022-11-04T16:56:29.907Z,54.16
2022-11-04T16:57:29.891Z,54.16
2022-11-04T16:58:29.871Z,53.77
2022-11-04T16:59:29.886Z,53.58
2022-11-04T17:00:30.924Z,53.67
2022-11-04T17:01:30.149Z,53.67
2022-11-04T17:02:30.023Z,54.06
2022-11-04T17:03:28.145Z,53.58
2022-11-04T17:04:30.890Z,53.67
2022-11-04T17:05:29.119Z,53.29
2022-11-04T17:06:29.477Z,54.06
2022-11-04T17:07:47.194Z,53.77
2022-11-04T17:08:29.108Z,54.25
2022-11-04T17:09:29.187Z,53.87
2022-11-04T17:10:31.903Z,53.87
2022-11-04T17:11:29.118Z,53.58
2022-11-04T17:12:29.874Z,53.39
2022-11-04T17:13:35.147Z,53.48
2022-11-04T17:14:30.227Z,53.96
2022-11-04T17:15:29.938Z,53.77
2022-11-04T17:16:29.905Z,53.39
2022-11-04T17:17:29.115Z,53.96
2022-11-04T17:18:29.886Z,53.87
2022-11-04T17:19:34.251Z,53.96
2022-11-04T17:20:29.940Z,53.48
2022-11-04T17:21:29.900Z,54.06
2022-11-04T17:22:29.068Z,53.48
2022-11-04T17:23:29.933Z,53.48
2022-11-04T17:24:29.883Z,53.96
2022-11-04T17:25:29.178Z,53.58
2022-11-04T17:26:30.980Z,53.96
2022-11-04T17:27:30.088Z,53.96
2022-11-04T17:28:29.042Z,53.96
2022-11-04T17:29:29.918Z,53.96
2022-11-04T17:30:29.888Z,53.67
2022-11-04T17:31:29.903Z,53.58
2022-11-04T17:32:29.898Z,53.96